Time;durP1;ratioP1;P1;durP2;ratioP2;P2;SDS_P1;SDS_P2;PMS_P1;PMS_P2;Temp;Humidity;BMP_temperature;BMP_pressure;BME280_temperature;BME280_humidity;BME280_pressure;Samples;Min_cycle;Max_cycle;Signal;HPM_P1;HPM_P2
2021/07/01 00:00:36;;;;;;;23.15;12.50;;;16.00;99.90;;;;;;5056002;28;20178;-85
2021/07/01 00:03:04;;;;;;;26.60;12.90;;;16.10;99.90;;;;;;5055464;28;20256;-84
2021/07/01 00:05:29;;;;;;;29.45;14.25;;;16.10;99.90;;;;;;5039311;28;20176;-85
2021/07/01 00:07:55;;;;;;;17.23;11.77;;;16.20;99.90;;;;;;5073385;28;20194;-85
2021/07/01 00:10:25;;;;;;;24.67;12.65;;;16.10;99.90;;;;;;5055621;28;20274;-85
2021/07/01 00:12:51;;;;;;;18.38;11.80;;;16.10;99.90;;;;;;5055403;28;20171;-85
2021/07/01 00:15:23;;;;;;;22.40;12.48;;;16.10;99.90;;;;;;5055660;28;20174;-84
2021/07/01 00:17:49;;;;;;;24.90;12.27;;;16.20;99.90;;;;;;5089344;28;20189;-85
2021/07/01 00:20:15;;;;;;;30.20;12.43;;;16.20;99.90;;;;;;5075502;28;20588;-85
2021/07/01 00:22:41;;;;;;;25.73;11.80;;;16.10;99.90;;;;;;5093413;28;20254;-85
2021/07/01 00:25:09;;;;;;;23.45;12.02;;;16.10;99.90;;;;;;5078134;28;20193;-85
2021/07/01 00:27:36;;;;;;;36.33;13.57;;;16.10;99.90;;;;;;5079617;28;20708;-86
2021/07/01 00:30:07;;;;;;;30.25;12.85;;;16.10;99.90;;;;;;5079433;28;20170;-86
2021/07/01 00:32:33;;;;;;;32.80;11.98;;;16.00;99.90;;;;;;5097793;28;20169;-86
2021/07/01 00:34:58;;;;;;;30.63;12.02;;;16.00;99.90;;;;;;5063066;28;20174;-87
2021/07/01 00:37:24;;;;;;;18.25;10.73;;;15.90;99.90;;;;;;5079443;28;20177;-87
2021/07/01 00:39:50;;;;;;;19.98;10.57;;;15.90;99.90;;;;;;5062659;28;20197;-86
2021/07/01 00:42:16;;;;;;;24.33;11.38;;;15.80;99.90;;;;;;5063875;28;20543;-86
2021/07/01 00:44:42;;;;;;;24.30;10.77;;;15.80;99.90;;;;;;5079503;28;20195;-86
2021/07/01 00:47:08;;;;;;;22.15;11.05;;;15.90;99.90;;;;;;5079182;28;20185;-86
2021/07/01 00:49:34;;;;;;;21.98;11.15;;;15.90;99.90;;;;;;5079145;28;20174;-86
2021/07/01 00:52:00;;;;;;;22.33;11.10;;;15.90;99.90;;;;;;5079250;28;20170;-87
2021/07/01 00:54:25;;;;;;;28.45;12.30;;;15.90;99.90;;;;;;5079590;28;20637;-87
2021/07/01 00:56:51;;;;;;;20.85;12.27;;;15.80;99.90;;;;;;5079390;28;20186;-87
2021/07/01 00:59:17;;;;;;;23.13;11.30;;;15.80;99.90;;;;;;5079342;28;20182;-87
2021/07/01 01:01:43;;;;;;;26.05;11.73;;;15.90;99.90;;;;;;5062650;28;20198;-86
2021/07/01 01:04:09;;;;;;;26.00;11.77;;;15.80;99.90;;;;;;5097337;28;20185;-86
2021/07/01 01:06:35;;;;;;;29.10;11.93;;;15.80;99.90;;;;;;5097077;28;20154;-86
2021/07/01 01:09:04;;;;;;;27.42;11.82;;;15.80;99.90;;;;;;5096514;28;20209;-87
2021/07/01 01:11:30;;;;;;;28.05;11.18;;;15.80;99.90;;;;;;5096816;28;20215;-86
2021/07/01 01:13:56;;;;;;;27.15;11.38;;;15.80;99.90;;;;;;5078985;28;20170;-87
2021/07/01 01:16:22;;;;;;;18.33;10.07;;;15.90;99.90;;;;;;5091933;28;20163;-85
2021/07/01 01:18:49;;;;;;;23.95;11.38;;;15.80;99.90;;;;;;5041946;28;20178;-86
2021/07/01 01:21:16;;;;;;;19.35;10.20;;;15.80;99.90;;;;;;5058731;28;20268;-86
2021/07/01 01:23:42;;;;;;;23.08;11.30;;;15.80;99.90;;;;;;5042203;28;20198;-86
2021/07/01 01:26:09;;;;;;;21.08;10.02;;;15.70;99.90;;;;;;5058686;28;20232;-87
2021/07/01 01:28:37;;;;;;;33.30;12.05;;;15.90;99.90;;;;;;5070377;28;20212;-87
2021/07/01 01:31:04;;;;;;;22.63;11.25;;;15.90;99.90;;;;;;5078922;28;20523;-87
2021/07/01 01:33:30;;;;;;;28.70;12.00;;;15.90;99.90;;;;;;5061965;28;20174;-87
2021/07/01 01:35:56;;;;;;;32.45;10.75;;;15.90;99.90;;;;;;5078538;28;20197;-87
2021/07/01 01:38:22;;;;;;;34.15;11.98;;;16.00;99.90;;;;;;5091894;28;20517;-87
2021/07/01 01:40:49;;;;;;;28.98;11.98;;;15.90;99.90;;;;;;5076004;28;20192;-86
2021/07/01 01:43:19;;;;;;;19.33;11.55;;;15.90;99.90;;;;;;5078683;28;20534;-87
2021/07/01 01:45:46;;;;;;;16.55;10.82;;;16.00;99.90;;;;;;5078375;28;20170;-86
2021/07/01 01:48:12;;;;;;;28.60;12.25;;;16.00;99.90;;;;;;5078338;28;20210;-86
2021/07/01 01:50:39;;;;;;;23.63;12.50;;;16.00;99.90;;;;;;5078488;28;20174;-87
2021/07/01 01:53:05;;;;;;;24.23;13.05;;;15.90;99.90;;;;;;5096377;28;20158;-86
2021/07/01 01:55:31;;;;;;;21.40;12.35;;;15.90;99.90;;;;;;5078224;28;20174;-86
2021/07/01 01:57:57;;;;;;;28.98;12.45;;;16.00;99.90;;;;;;5078530;28;20177;-86
2021/07/01 02:00:24;;;;;;;32.85;13.73;;;16.00;99.90;;;;;;5060781;28;20581;-87
2021/07/01 02:02:50;;;;;;;37.72;13.80;;;16.00;99.90;;;;;;5058028;28;20646;-86
2021/07/01 02:05:16;;;;;;;33.90;14.60;;;16.00;99.90;;;;;;5058094;28;20492;-86
2021/07/01 02:07:43;;;;;;;25.95;14.18;;;16.10;99.90;;;;;;5057916;28;20204;-87
2021/07/01 02:10:12;;;;;;;27.13;14.60;;;16.10;99.90;;;;;;5072574;28;20178;-87
2021/07/01 02:12:38;;;;;;;31.20;13.82;;;16.20;99.90;;;;;;5077891;28;20169;-87
2021/07/01 02:15:06;;;;;;;28.10;14.35;;;16.20;99.90;;;;;;5077853;28;20170;-87
2021/07/01 02:17:35;;;;;;;33.90;13.98;;;16.20;99.90;;;;;;5095813;28;20192;-86
2021/07/01 02:20:09;;;;;;;21.85;13.63;;;16.10;99.90;;;;;;5095730;28;20162;-86
2021/07/01 02:22:35;;;;;;;29.13;13.65;;;16.10;99.90;;;;;;5077733;28;20194;-86
2021/07/01 02:25:03;;;;;;;32.50;13.95;;;16.10;99.90;;;;;;5077696;28;20221;-86
2021/07/01 02:27:29;;;;;;;23.58;14.13;;;16.10;99.90;;;;;;5077289;28;20654;-87
2021/07/01 02:29:54;;;;;;;25.80;14.65;;;16.10;99.90;;;;;;5056965;28;20231;-87
2021/07/01 02:32:20;;;;;;;31.67;14.98;;;16.10;99.90;;;;;;5077183;28;20171;-86
2021/07/01 02:34:47;;;;;;;27.67;13.48;;;16.10;99.90;;;;;;5077582;28;20169;-86
2021/07/01 02:37:12;;;;;;;24.45;13.75;;;16.10;99.90;;;;;;5057091;28;20178;-87
2021/07/01 02:39:39;;;;;;;30.27;13.77;;;16.10;99.90;;;;;;5077145;28;20185;-86
2021/07/01 02:42:06;;;;;;;44.15;14.48;;;16.10;99.90;;;;;;5060590;28;20174;-87
2021/07/01 02:44:32;;;;;;;28.95;13.95;;;16.00;99.90;;;;;;5077202;28;20498;-86
2021/07/01 02:46:58;;;;;;;24.73;13.88;;;16.10;99.90;;;;;;5076820;28;20200;-86
2021/07/01 02:49:24;;;;;;;27.83;12.90;;;16.10;99.90;;;;;;5060487;28;20213;-87
2021/07/01 02:51:52;;;;;;;24.70;14.13;;;16.10;99.90;;;;;;5076412;28;20186;-86
2021/07/01 02:54:19;;;;;;;37.38;14.73;;;16.10;99.90;;;;;;5077084;28;20162;-86
2021/07/01 02:56:45;;;;;;;26.95;14.38;;;16.20;99.90;;;;;;5094955;28;20187;-85
2021/07/01 02:59:14;;;;;;;30.70;15.50;;;16.20;99.90;;;;;;5075933;28;20536;-87
2021/07/01 03:01:43;;;;;;;23.13;13.90;;;16.10;99.90;;;;;;5076787;28;20524;-86
2021/07/01 03:04:10;;;;;;;28.20;15.10;;;16.10;99.90;;;;;;5076725;28;20206;-86
2021/07/01 03:06:36;;;;;;;33.45;15.10;;;16.20;99.90;;;;;;5076779;28;20167;-85
2021/07/01 03:09:02;;;;;;;34.50;14.85;;;16.20;99.90;;;;;;5069426;28;20206;-85
2021/07/01 03:11:28;;;;;;;33.80;15.75;;;16.20;99.90;;;;;;5056518;28;20194;-86
2021/07/01 03:13:54;;;;;;;26.10;14.93;;;16.20;99.90;;;;;;5056644;28;20207;-86
2021/07/01 03:16:20;;;;;;;30.63;16.20;;;16.20;99.90;;;;;;5056520;28;20171;-86
2021/07/01 03:18:51;;;;;;;21.33;14.07;;;16.20;99.90;;;;;;5056518;28;20700;-86
2021/07/01 03:21:17;;;;;;;21.75;14.95;;;16.10;99.90;;;;;;5056014;28;20190;-85
2021/07/01 03:23:43;;;;;;;23.73;14.43;;;16.00;99.90;;;;;;5055997;28;20169;-85
2021/07/01 03:26:10;;;;;;;28.40;14.55;;;16.10;99.90;;;;;;5055962;28;20170;-85
2021/07/01 03:28:37;;;;;;;30.65;15.55;;;16.00;99.90;;;;;;5057625;28;20198;-85
2021/07/01 03:31:03;;;;;;;32.78;15.05;;;16.00;99.90;;;;;;5056102;28;20585;-86
2021/07/01 03:33:29;;;;;;;30.45;14.75;;;16.00;99.90;;;;;;5056146;28;20220;-85
2021/07/01 03:35:55;;;;;;;30.20;14.93;;;16.00;99.90;;;;;;5056125;28;20170;-85
2021/07/01 03:38:21;;;;;;;34.33;15.07;;;15.90;99.90;;;;;;5056755;28;20182;-85
2021/07/01 03:40:47;;;;;;;31.13;14.38;;;15.90;99.90;;;;;;5076026;28;20166;-85
2021/07/01 03:43:13;;;;;;;21.60;14.20;;;15.90;99.90;;;;;;5075937;28;20169;-85
2021/07/01 03:45:38;;;;;;;29.95;13.90;;;15.90;99.90;;;;;;5075904;28;20173;-84
2021/07/01 03:48:05;;;;;;;27.27;14.30;;;15.90;99.90;;;;;;5093600;28;20753;-85
2021/07/01 03:50:31;;;;;;;23.25;13.98;;;16.00;99.90;;;;;;5075699;28;20177;-85
2021/07/01 03:52:56;;;;;;;19.23;14.48;;;16.00;99.90;;;;;;5075719;28;20166;-85
2021/07/01 03:55:22;;;;;;;29.77;13.77;;;16.00;99.90;;;;;;5076141;28;20622;-85
2021/07/01 03:57:48;;;;;;;24.90;13.68;;;16.00;99.90;;;;;;5075792;28;20584;-84
2021/07/01 04:00:15;;;;;;;23.02;13.23;;;16.00;99.90;;;;;;5078217;28;20533;-84
2021/07/01 04:02:41;;;;;;;20.15;13.30;;;16.00;99.90;;;;;;5080013;28;20170;-84
2021/07/01 04:05:08;;;;;;;19.73;13.68;;;15.90;99.90;;;;;;5079765;28;20752;-84
2021/07/01 04:07:34;;;;;;;27.92;13.40;;;15.90;99.90;;;;;;5079266;28;20287;-84
2021/07/01 04:10:06;;;;;;;23.80;13.02;;;15.90;99.90;;;;;;5097027;28;20184;-84
2021/07/01 04:12:32;;;;;;;23.15;12.57;;;15.90;99.90;;;;;;5079788;28;20528;-84
2021/07/01 04:14:58;;;;;;;34.05;13.02;;;16.00;99.90;;;;;;5097826;28;20173;-84
2021/07/01 04:17:24;;;;;;;20.05;13.07;;;16.00;99.90;;;;;;5079535;28;20189;-85
2021/07/01 04:19:50;;;;;;;21.65;12.40;;;16.00;99.90;;;;;;5097202;28;20186;-84
2021/07/01 04:22:15;;;;;;;29.30;12.40;;;16.20;99.90;;;;;;5079137;28;20170;-84
2021/07/01 04:24:41;;;;;;;17.55;12.48;;;16.20;99.90;;;;;;5062705;28;20638;-84
2021/07/01 04:27:07;;;;;;;24.73;13.13;;;16.40;99.90;;;;;;5079154;28;20277;-84
2021/07/01 04:29:33;;;;;;;22.75;11.75;;;16.40;99.90;;;;;;5078503;28;20573;-84
2021/07/01 04:31:59;;;;;;;20.05;12.65;;;16.50;99.90;;;;;;5065167;28;20262;-84
2021/07/01 04:34:25;;;;;;;20.83;11.77;;;16.50;99.90;;;;;;5042465;28;20224;-86
2021/07/01 04:36:51;;;;;;;21.90;12.70;;;16.50;99.90;;;;;;5059106;28;20225;-84
2021/07/01 04:39:17;;;;;;;25.67;13.40;;;16.60;99.90;;;;;;5069233;28;20178;-84
2021/07/01 04:41:43;;;;;;;19.15;10.98;;;16.70;99.90;;;;;;5079196;28;20168;-84
2021/07/01 04:44:09;;;;;;;22.17;11.23;;;16.70;99.90;;;;;;5096882;28;20171;-84
2021/07/01 04:46:35;;;;;;;16.00;11.80;;;16.60;99.90;;;;;;5096984;28;20167;-84
2021/07/01 04:49:01;;;;;;;19.98;12.20;;;16.60;99.90;;;;;;5096723;28;20582;-85
2021/07/01 04:51:27;;;;;;;21.80;11.60;;;16.70;99.90;;;;;;5078940;28;20200;-84
2021/07/01 04:53:53;;;;;;;12.95;10.90;;;16.80;99.90;;;;;;5062165;28;20618;-84
2021/07/01 04:56:19;;;;;;;16.05;10.70;;;16.80;99.90;;;;;;5061812;28;20174;-84
2021/07/01 04:58:45;;;;;;;17.90;11.02;;;16.90;99.90;;;;;;5077739;28;20206;-84
2021/07/01 05:01:11;;;;;;;14.43;10.18;;;17.10;99.90;;;;;;5096669;28;20162;-85
2021/07/01 05:03:36;;;;;;;11.15;9.23;;;17.20;99.90;;;;;;5078628;28;20521;-84
2021/07/01 05:06:02;;;;;;;16.73;10.15;;;17.30;99.90;;;;;;5078530;28;20180;-84
2021/07/01 05:08:28;;;;;;;13.45;9.07;;;17.40;99.90;;;;;;5078054;28;20208;-84
2021/07/01 05:10:54;;;;;;;21.35;10.55;;;17.40;99.90;;;;;;5078025;28;20161;-84
2021/07/01 05:13:20;;;;;;;16.55;9.32;;;17.30;99.90;;;;;;5096591;28;20215;-84
2021/07/01 05:15:46;;;;;;;15.77;9.90;;;17.40;99.90;;;;;;5078206;28;20706;-84
2021/07/01 05:18:12;;;;;;;17.65;9.48;;;17.50;99.90;;;;;;5077756;28;20189;-85
2021/07/01 05:20:38;;;;;;;13.65;8.20;;;17.60;99.90;;;;;;5078000;28;20178;-84
2021/07/01 05:23:04;;;;;;;15.52;8.85;;;17.60;99.90;;;;;;5078299;28;20220;-83
2021/07/01 05:25:30;;;;;;;13.35;8.55;;;17.60;99.90;;;;;;5078203;28;20170;-84
2021/07/01 05:27:56;;;;;;;20.00;8.48;;;17.70;99.90;;;;;;5077550;28;20279;-84
2021/07/01 05:30:21;;;;;;;13.23;8.27;;;17.80;99.90;;;;;;5076731;28;20211;-84
2021/07/01 05:32:47;;;;;;;18.25;8.10;;;17.90;99.90;;;;;;5078080;28;20181;-84
2021/07/01 05:35:13;;;;;;;20.77;8.38;;;18.00;99.90;;;;;;5096177;28;20562;-84
2021/07/01 05:37:39;;;;;;;14.13;8.02;;;18.10;99.90;;;;;;5061332;28;20180;-85
2021/07/01 05:40:06;;;;;;;15.38;7.53;;;18.10;99.90;;;;;;5077825;28;20171;-84
2021/07/01 05:42:31;;;;;;;9.48;7.03;;;18.10;99.90;;;;;;5077701;28;20212;-84
2021/07/01 05:44:57;;;;;;;15.20;7.22;;;18.00;99.90;;;;;;5077424;28;20166;-83
2021/07/01 05:47:23;;;;;;;9.82;7.65;;;18.00;99.90;;;;;;5077664;28;20261;-84
2021/07/01 05:49:49;;;;;;;20.30;7.07;;;18.10;99.90;;;;;;5077414;28;20189;-84
2021/07/01 05:52:21;;;;;;;19.75;6.90;;;18.20;99.90;;;;;;5057274;28;20189;-84
2021/07/01 05:54:56;;;;;;;13.60;6.40;;;18.40;99.90;;;;;;5063522;28;20167;-84
2021/07/01 05:57:23;;;;;;;10.18;5.55;;;18.60;99.90;;;;;;5057488;28;20261;-85
2021/07/01 05:59:49;;;;;;;17.05;6.72;;;18.40;99.90;;;;;;5075332;28;20569;-84
2021/07/01 06:02:15;;;;;;;12.25;6.05;;;18.50;99.90;;;;;;5080410;28;20162;-83
2021/07/01 06:04:41;;;;;;;9.95;5.97;;;18.50;99.90;;;;;;5077485;28;20624;-83
2021/07/01 06:07:09;;;;;;;15.10;5.90;;;18.10;99.90;;;;;;5077397;28;20189;-84
2021/07/01 06:09:37;;;;;;;18.40;6.20;;;17.80;99.90;;;;;;5077105;28;20178;-83
2021/07/01 06:12:03;;;;;;;10.77;5.70;;;17.80;99.90;;;;;;5076865;28;20177;-84
2021/07/01 06:14:29;;;;;;;11.25;6.00;;;17.80;99.90;;;;;;5076882;28;20166;-84
2021/07/01 06:17:05;;;;;;;14.18;6.05;;;17.80;99.90;;;;;;5076925;28;20181;-83
2021/07/01 06:19:30;;;;;;;20.65;6.03;;;17.70;99.90;;;;;;5095137;28;20172;-84
2021/07/01 06:21:56;;;;;;;14.43;6.45;;;17.80;99.90;;;;;;5078854;28;20173;-83
2021/07/01 06:24:22;;;;;;;29.48;6.85;;;17.90;99.90;;;;;;5068677;28;20532;-83
2021/07/01 06:26:49;;;;;;;14.45;6.35;;;17.80;99.90;;;;;;5056803;28;20163;-83
2021/07/01 06:29:16;;;;;;;14.20;6.40;;;17.70;99.90;;;;;;5056793;28;20209;-84
2021/07/01 06:31:42;;;;;;;17.90;6.80;;;17.60;99.90;;;;;;5074740;28;20169;-84
2021/07/01 06:34:08;;;;;;;13.02;6.35;;;17.50;99.90;;;;;;5056772;28;20167;-84
2021/07/01 06:36:35;;;;;;;16.63;6.53;;;17.40;99.90;;;;;;5056810;28;20162;-83
2021/07/01 06:39:05;;;;;;;11.98;6.15;;;17.30;99.90;;;;;;5063609;28;20224;-84
2021/07/01 06:41:32;;;;;;;13.85;5.55;;;17.20;99.90;;;;;;5094666;28;20202;-83
2021/07/01 06:43:58;;;;;;;17.75;5.90;;;17.00;99.90;;;;;;5076603;28;20253;-85
2021/07/01 06:46:30;;;;;;;12.32;6.32;;;16.70;99.90;;;;;;5094504;28;20253;-83
2021/07/01 06:48:56;;;;;;;13.05;5.90;;;16.40;99.90;;;;;;5094671;28;20257;-83
2021/07/01 06:51:23;;;;;;;12.38;5.93;;;16.30;99.90;;;;;;5074159;28;20170;-83
2021/07/01 06:53:49;;;;;;;13.07;6.28;;;16.40;99.90;;;;;;5076169;28;20166;-83
2021/07/01 06:56:15;;;;;;;13.55;7.00;;;16.50;99.90;;;;;;5094595;28;20257;-83
2021/07/01 06:58:43;;;;;;;15.27;6.60;;;16.60;99.90;;;;;;5059597;28;20261;-83
2021/07/01 07:01:09;;;;;;;20.48;6.25;;;16.70;99.90;;;;;;5076470;28;20589;-83
2021/07/01 07:03:35;;;;;;;15.63;6.22;;;16.70;99.90;;;;;;5076207;28;20268;-83
2021/07/01 07:06:02;;;;;;;9.70;5.40;;;16.90;99.90;;;;;;5094296;28;20245;-83
2021/07/01 07:08:28;;;;;;;9.88;5.65;;;17.00;99.90;;;;;;5093518;28;20250;-83
2021/07/01 07:10:54;;;;;;;8.50;4.88;;;17.20;99.90;;;;;;5075993;28;20499;-82
2021/07/01 07:13:24;;;;;;;9.75;5.00;;;17.50;99.90;;;;;;5075518;28;20281;-83
2021/07/01 07:15:52;;;;;;;15.02;5.22;;;17.70;99.90;;;;;;5075475;28;20166;-83
2021/07/01 07:18:23;;;;;;;9.20;5.35;;;18.00;99.90;;;;;;5076173;28;20204;-86
2021/07/01 07:20:58;;;;;;;7.88;4.75;;;18.00;99.90;;;;;;5075949;28;20212;-87
2021/07/01 07:23:31;;;;;;;8.15;4.63;;;18.20;99.90;;;;;;5075753;28;20172;-85
2021/07/01 07:25:57;;;;;;;7.38;4.60;;;18.40;99.90;;;;;;5076126;28;20526;-88
2021/07/01 07:28:25;;;;;;;9.77;5.00;;;18.30;99.90;;;;;;5094425;28;20198;-87
2021/07/01 07:30:54;;;;;;;10.15;5.10;;;18.40;99.90;;;;;;5064990;28;20209;-87
2021/07/01 07:33:24;;;;;;;11.50;4.70;;;18.40;99.90;;;;;;5056001;28;20266;-88
2021/07/01 07:35:50;;;;;;;7.32;4.53;;;18.50;99.90;;;;;;5056306;28;20171;-88
2021/07/01 07:38:18;;;;;;;10.60;4.70;;;18.50;99.90;;;;;;5057267;28;20190;-88
2021/07/01 07:40:44;;;;;;;11.27;4.07;;;18.70;99.90;;;;;;5094558;28;20159;-90
2021/07/01 07:43:13;;;;;;;7.65;3.72;;;18.50;99.90;;;;;;5076480;28;20644;-88
2021/07/01 07:45:43;;;;;;;9.43;3.63;;;18.40;99.90;;;;;;5076708;28;20166;-88
2021/07/01 07:48:08;;;;;;;9.68;4.28;;;18.50;99.90;;;;;;5076090;28;20205;-86
2021/07/01 07:50:37;;;;;;;10.15;3.42;;;18.70;99.90;;;;;;5094311;28;20178;-86
2021/07/01 07:53:06;;;;;;;16.52;4.03;;;18.90;99.90;;;;;;5092665;28;20178;-87
2021/07/01 07:55:33;;;;;;;10.38;3.55;;;18.90;99.90;;;;;;5076328;28;20170;-87
2021/07/01 07:58:03;;;;;;;10.10;4.13;;;18.90;99.90;;;;;;5076557;28;20183;-87
2021/07/01 08:03:42;;;;;;;9.75;4.35;;;18.60;99.90;;;;;;5094201;28;20529;-89
2021/07/01 08:06:10;;;;;;;6.35;3.00;;;18.40;99.90;;;;;;5076655;28;20170;-88
2021/07/01 08:08:42;;;;;;;10.43;3.65;;;18.30;99.90;;;;;;5076319;28;20198;-88
2021/07/01 08:11:09;;;;;;;11.98;3.53;;;18.00;99.90;;;;;;5076284;28;20178;-88
2021/07/01 08:13:38;;;;;;;5.50;3.78;;;17.90;99.90;;;;;;5076421;28;20177;-89
2021/07/01 08:16:07;;;;;;;9.20;3.75;;;18.00;99.90;;;;;;5094317;28;20170;-89
2021/07/01 08:18:38;;;;;;;11.27;3.88;;;18.20;99.90;;;;;;5076306;28;20196;-89
2021/07/01 08:21:09;;;;;;;8.65;3.83;;;18.50;99.90;;;;;;5094491;28;20170;-89
2021/07/01 08:23:45;;;;;;;6.00;3.42;;;18.70;99.90;;;;;;5076422;28;20193;-89
2021/07/01 08:26:15;;;;;;;15.15;4.40;;;18.80;99.90;;;;;;5066080;28;20177;-89
2021/07/01 08:28:41;;;;;;;9.48;4.00;;;19.00;99.90;;;;;;5073997;28;20236;-89
2021/07/01 08:31:13;;;;;;;5.07;4.00;;;19.10;99.90;;;;;;5056377;28;20265;-89
2021/07/01 08:33:50;;;;;;;11.80;3.75;;;19.10;99.90;;;;;;5073765;28;20170;-88
2021/07/01 08:36:25;;;;;;;9.27;3.88;;;19.10;99.90;;;;;;5055952;28;20171;-89
2021/07/01 08:42:25;;;;;;;7.70;3.97;;;19.10;99.90;;;;;;5073416;28;20171;-91
2021/07/01 08:48:42;;;;;;;8.38;4.10;;;19.30;99.90;;;;;;5055672;28;20260;-88
2021/07/01 08:51:09;;;;;;;10.75;4.13;;;19.10;99.90;;;;;;5060119;28;20211;-88
2021/07/01 08:54:09;;;;;;;10.75;4.05;;;19.20;99.90;;;;;;5074669;28;20647;-89
2021/07/01 08:56:37;;;;;;;8.20;3.88;;;19.30;99.90;;;;;;5058320;28;20173;-85
2021/07/01 08:59:07;;;;;;;7.72;3.75;;;19.60;99.90;;;;;;5073980;28;20204;-85
2021/07/01 09:01:36;;;;;;;9.50;3.58;;;20.00;99.90;;;;;;5072920;28;20179;-85
2021/07/01 09:04:04;;;;;;;7.65;3.80;;;20.10;99.90;;;;;;5073786;28;20257;-84
2021/07/01 09:06:36;;;;;;;6.88;3.85;;;20.10;99.90;;;;;;5057351;28;20592;-85
2021/07/01 09:09:05;;;;;;;6.60;3.50;;;19.70;99.90;;;;;;5070685;28;20218;-85
2021/07/01 09:11:38;;;;;;;8.95;4.28;;;19.70;99.90;;;;;;5056985;28;20174;-86
2021/07/01 09:14:07;;;;;;;9.02;3.67;;;19.60;99.90;;;;;;5058280;28;20171;-85
2021/07/01 09:16:37;;;;;;;13.48;4.65;;;19.60;99.90;;;;;;5058076;28;20167;-87
2021/07/01 09:19:05;;;;;;;8.07;3.90;;;19.70;99.90;;;;;;5058534;28;20167;-86
2021/07/01 09:21:32;;;;;;;17.80;4.57;;;19.90;99.90;;;;;;5061229;28;20174;-85
2021/07/01 09:24:00;;;;;;;5.90;3.50;;;20.10;99.90;;;;;;5058148;28;20185;-87
2021/07/01 09:26:27;;;;;;;9.77;4.18;;;19.90;99.90;;;;;;5058147;28;20177;-86
2021/07/01 09:28:54;;;;;;;9.35;4.63;;;19.60;99.90;;;;;;5076075;28;20697;-85
2021/07/01 09:31:23;;;;;;;15.18;4.65;;;19.40;99.90;;;;;;5058325;28;20174;-85
2021/07/01 09:33:50;;;;;;;9.73;4.43;;;19.60;99.90;;;;;;5058797;28;20179;-93
2021/07/01 09:36:19;;;;;;;8.98;4.35;;;19.70;99.90;;;;;;5059093;28;20159;-90
2021/07/01 09:38:57;;;;;;;12.32;4.45;;;19.90;99.90;;;;;;5059391;28;20239;-91
2021/07/01 09:44:47;;;;;;;7.57;4.38;;;19.70;99.90;;;;;;5080940;28;20156;-91
2021/07/01 09:47:14;;;;;;;13.00;3.70;;;19.20;99.90;;;;;;5078969;28;20173;-90
2021/07/01 09:49:42;;;;;;;10.73;4.90;;;19.10;99.90;;;;;;5078872;28;20210;-91
2021/07/01 09:52:14;;;;;;;13.85;5.80;;;19.00;99.90;;;;;;5078839;28;20553;-84
2021/07/01 09:54:50;;;;;;;13.60;5.00;;;19.00;99.90;;;;;;5072942;28;20186;-82
2021/07/01 09:57:28;;;;;;;15.35;4.72;;;19.00;99.90;;;;;;5076074;28;20167;-82
2021/07/01 10:00:13;;;;;;;8.93;4.75;;;19.00;99.90;;;;;;5076204;28;20652;-82
2021/07/01 10:02:40;;;;;;;11.07;4.30;;;19.20;99.90;;;;;;5075080;28;20200;-82
2021/07/01 10:05:08;;;;;;;9.10;5.45;;;19.40;99.90;;;;;;5094068;28;20231;-83
2021/07/01 10:07:47;;;;;;;18.10;4.97;;;19.60;99.90;;;;;;5074900;28;20633;-84
2021/07/01 10:10:13;;;;;;;9.20;4.63;;;19.50;99.90;;;;;;5094845;28;20547;-82
2021/07/01 10:12:51;;;;;;;14.05;5.25;;;19.40;99.90;;;;;;5059919;28;20202;-82
2021/07/01 10:15:31;;;;;;;16.00;6.47;;;19.60;99.90;;;;;;5076874;28;20169;-89
2021/07/01 10:18:15;;;;;;;14.65;4.97;;;19.60;99.90;;;;;;5095419;28;20192;-87
2021/07/01 10:20:44;;;;;;;8.65;5.00;;;19.70;99.90;;;;;;5076573;28;20174;-87
2021/07/01 10:23:29;;;;;;;14.05;5.85;;;19.80;99.90;;;;;;5076414;28;20182;-86
2021/07/01 10:26:00;;;;;;;8.60;5.97;;;19.90;99.90;;;;;;5077433;28;20163;-85
2021/07/01 10:28:30;;;;;;;13.07;5.68;;;20.30;99.90;;;;;;5076971;28;20217;-83
2021/07/01 10:31:08;;;;;;;12.95;5.30;;;20.40;99.90;;;;;;5094274;28;20174;-82
2021/07/01 10:33:37;;;;;;;14.82;5.07;;;20.70;99.90;;;;;;5076598;28;20264;-84
2021/07/01 10:36:05;;;;;;;11.00;4.85;;;21.10;99.90;;;;;;5094583;28;20170;-80
2021/07/01 10:38:51;;;;;;;21.27;5.15;;;21.20;99.90;;;;;;5093922;28;20162;-81
2021/07/01 10:41:26;;;;;;;9.20;4.63;;;21.50;99.90;;;;;;5076852;28;20200;-85
2021/07/01 10:43:51;;;;;;;16.88;5.30;;;21.70;99.90;;;;;;5076701;28;20173;-86
2021/07/01 10:46:17;;;;;;;13.88;5.15;;;21.90;99.90;;;;;;5075989;28;20227;-87
2021/07/01 10:48:56;;;;;;;9.35;4.97;;;21.90;99.90;;;;;;5094306;28;20198;-86
2021/07/01 10:51:22;;;;;;;10.00;5.28;;;21.70;99.90;;;;;;5070720;28;20265;-85
2021/07/01 10:53:48;;;;;;;12.57;4.65;;;21.70;99.90;;;;;;5085432;28;20635;-87
2021/07/01 10:56:17;;;;;;;19.15;5.38;;;21.30;99.90;;;;;;5076248;28;20166;-81
2021/07/01 10:58:44;;;;;;;20.92;6.25;;;20.70;99.90;;;;;;5075759;28;20668;-80
2021/07/01 11:01:29;;;;;;;13.10;5.80;;;20.50;99.90;;;;;;5075566;28;20181;-82
2021/07/01 11:04:07;;;;;;;15.32;5.60;;;20.50;99.90;;;;;;5076472;28;20150;-78
2021/07/01 11:06:34;;;;;;;12.75;4.97;;;20.40;99.90;;;;;;5093673;28;20252;-80
2021/07/01 11:09:01;;;;;;;15.57;4.78;;;20.50;99.90;;;;;;5075060;28;20200;-82
2021/07/01 11:11:31;;;;;;;12.93;5.53;;;20.80;99.90;;;;;;5075979;28;20216;-83
2021/07/01 11:14:07;;;;;;;11.82;4.95;;;20.70;99.90;;;;;;5059475;28;20166;-82
2021/07/01 11:16:38;;;;;;;14.82;5.28;;;20.80;99.90;;;;;;5093491;28;20630;-82
2021/07/01 11:19:05;;;;;;;17.50;5.78;;;21.10;99.90;;;;;;5075591;28;20208;-82
2021/07/01 11:21:31;;;;;;;14.60;4.63;;;21.20;99.90;;;;;;5064785;28;20316;-82
2021/07/01 11:24:14;;;;;;;22.00;5.20;;;21.20;99.90;;;;;;5073385;28;20162;-80
2021/07/01 11:26:41;;;;;;;10.80;5.10;;;21.70;99.90;;;;;;5055627;28;20299;-81
2021/07/01 11:29:08;;;;;;;11.00;5.60;;;22.30;99.90;;;;;;5055452;28;20194;-82
2021/07/01 11:31:48;;;;;;;12.10;4.47;;;22.70;99.90;;;;;;5084345;28;20522;-83
2021/07/01 11:34:18;;;;;;;16.75;4.30;;;23.10;99.90;;;;;;5093813;28;20166;-82
2021/07/01 11:36:54;;;;;;;19.52;5.43;;;23.50;99.90;;;;;;5093965;28;20158;-82
2021/07/01 11:39:29;;;;;;;8.95;4.68;;;24.00;99.90;;;;;;5075655;28;20174;-82
2021/07/01 11:41:57;;;;;;;13.02;4.50;;;24.40;99.90;;;;;;5094046;28;20258;-82
2021/07/01 11:44:23;;;;;;;12.63;5.00;;;25.50;99.90;;;;;;5075538;28;20174;-82
2021/07/01 11:46:50;;;;;;;6.60;3.97;;;27.00;99.90;;;;;;5074961;28;20186;-82
2021/07/01 11:49:18;;;;;;;13.73;4.45;;;27.30;99.90;;;;;;5075477;28;20202;-83
2021/07/01 11:51:44;;;;;;;10.80;4.43;;;26.90;99.90;;;;;;5082446;28;20174;-83
2021/07/01 11:54:10;;;;;;;8.80;4.47;;;26.40;99.90;;;;;;5055474;28;20174;-83
2021/07/01 11:56:59;;;;;;;9.15;4.80;;;26.60;99.90;;;;;;5065970;28;20177;-80
2021/07/01 11:59:30;;;;;;;13.63;4.47;;;27.50;99.90;;;;;;5077006;28;20182;-81
2021/07/01 12:01:58;;;;;;;9.75;4.63;;;28.20;99.90;;;;;;5093933;28;20177;-81
2021/07/01 12:04:36;;;;;;;10.65;4.70;;;27.90;99.90;;;;;;5075392;28;20162;-80
2021/07/01 12:07:23;;;;;;;9.35;4.68;;;27.70;99.90;;;;;;5093575;28;20150;-79
2021/07/01 12:09:49;;;;;;;11.52;5.57;;;27.00;99.90;;;;;;5093550;28;20189;-80
2021/07/01 12:12:22;;;;;;;10.02;5.50;;;27.30;99.90;;;;;;5075373;28;20200;-80
2021/07/01 12:14:48;;;;;;;12.73;5.00;;;27.20;99.90;;;;;;5093326;28;20162;-80
2021/07/01 12:17:49;;;;;;;13.75;5.20;;;26.80;99.90;;;;;;5093411;28;20227;-80
2021/07/01 12:20:50;;;;;;;11.68;4.85;;;26.40;99.90;;;;;;5094020;28;20154;-80
2021/07/01 12:23:17;;;;;;;9.25;4.80;;;27.40;99.90;;;;;;5076909;28;20542;-80
2021/07/01 12:25:45;;;;;;;13.00;4.45;;;27.80;99.90;;;;;;5077152;28;20169;-80
2021/07/01 12:28:13;;;;;;;11.18;4.70;;;27.70;99.90;;;;;;5058972;28;20575;-81
2021/07/01 12:30:56;;;;;;;14.05;5.15;;;26.80;99.90;;;;;;5092631;28;20179;-80
2021/07/01 12:33:43;;;;;;;7.18;4.13;;;26.50;99.90;;;;;;5077050;28;20235;-81
2021/07/01 12:36:24;;;;;;;12.98;5.25;;;26.80;99.90;;;;;;5077007;28;20174;-80
2021/07/01 12:39:05;;;;;;;12.93;5.50;;;26.40;99.90;;;;;;5059064;28;20213;-80
2021/07/01 12:41:55;;;;;;;10.13;4.50;;;25.70;99.90;;;;;;5076847;28;20173;-81
2021/07/01 12:44:29;;;;;;;13.52;6.13;;;25.20;99.90;;;;;;5077019;28;20151;-80
2021/07/01 12:46:55;;;;;;;8.48;5.25;;;24.90;99.90;;;;;;5058512;28;20171;-81
2021/07/01 12:51:58;;;;;;;8.30;5.97;;;24.50;99.90;;;;;;5077577;28;20700;-80
2021/07/01 12:54:24;;;;;;;10.85;5.75;;;24.20;99.90;;;;;;5076471;28;20194;-80
2021/07/01 12:57:13;;;;;;;16.90;6.50;;;24.30;99.90;;;;;;5058393;28;20217;-80
2021/07/01 12:59:44;;;;;;;15.02;5.80;;;24.20;99.90;;;;;;5058714;28;20170;-80